createdAt,value
2023-01-01T00:01:31.085Z,101682.72
2023-01-01T00:04:02.089Z,101685.47
2023-01-01T00:06:32.698Z,101691.78
2023-01-01T00:09:21.295Z,101703.88
2023-01-01T00:11:51.497Z,101702.22
2023-01-01T00:14:21.881Z,101712.94
2023-01-01T00:16:52.150Z,101725.56
2023-01-01T00:19:22.424Z,101725.81
2023-01-01T00:21:52.475Z,101741.38
2023-01-01T00:24:22.783Z,101739.91
2023-01-01T00:26:52.973Z,101743.13
2023-01-01T00:29:23.142Z,101742.47
2023-01-01T00:31:53.138Z,101739.91
2023-01-01T00:34:23.209Z,101746.19
2023-01-01T00:36:53.635Z,101751.03
2023-01-01T00:39:23.997Z,101763.66
2023-01-01T00:41:54.220Z,101762.56
2023-01-01T00:44:24.578Z,101767.19
2023-01-01T00:46:54.731Z,101770.78
2023-01-01T00:49:24.716Z,101784.31
2023-01-01T00:51:54.701Z,101780.78
2023-01-01T00:54:24.985Z,101776.69
2023-01-01T00:56:55.321Z,101797.00
2023-01-01T00:59:28.987Z,101799.16
2023-01-01T01:01:59.718Z,101805.22
2023-01-01T01:04:30.130Z,101818.69
2023-01-01T01:07:00.284Z,101813.50
2023-01-01T01:09:30.299Z,101821.19
2023-01-01T01:12:17.286Z,101812.97
2023-01-01T01:14:49.772Z,101817.16
2023-01-01T01:17:19.994Z,101832.81
2023-01-01T01:19:50.245Z,101823.66
2023-01-01T01:22:25.958Z,101822.94
2023-01-01T01:24:59.940Z,101836.66
2023-01-01T01:27:30.781Z,101843.50
2023-01-01T01:30:01.193Z,101838.31
2023-01-01T01:32:31.687Z,101840.22
2023-01-01T01:35:03.002Z,101846.25
2023-01-01T01:37:33.788Z,101845.16
2023-01-01T01:40:04.338Z,101846.53
2023-01-01T01:42:34.504Z,101844.91
2023-01-01T01:45:05.808Z,101852.53
2023-01-01T01:47:40.984Z,101854.22
2023-01-01T01:50:19.448Z,101846.34
2023-01-01T01:53:14.993Z,101846.44
2023-01-01T01:55:53.429Z,101849.63
2023-01-01T01:58:31.833Z,101846.56
2023-01-01T02:01:03.208Z,101844.91
2023-01-01T02:03:36.312Z,101846.38
2023-01-01T02:06:08.208Z,101846.72
2023-01-01T02:08:38.836Z,101846.13
2023-01-01T02:11:09.525Z,101847.91
2023-01-01T02:13:42.186Z,101840.97
2023-01-01T02:16:28.269Z,101842.69
2023-01-01T02:19:19.822Z,101836.16
2023-01-01T02:22:04.926Z,101829.28
2023-01-01T02:24:55.777Z,101839.38
2023-01-01T02:27:26.059Z,101830.00
2023-01-01T02:30:08.356Z,101823.59
2023-01-01T02:32:57.421Z,101830.75
2023-01-01T02:36:22.491Z,101826.25
2023-01-01T02:38:59.266Z,101831.78
2023-01-01T02:41:34.290Z,101833.44
2023-01-01T02:46:35.596Z,101823.06
2023-01-01T02:49:10.598Z,101825.59
2023-01-01T02:52:02.106Z,101829.44
2023-01-01T02:55:02.241Z,101824.50
2023-01-01T02:57:52.219Z,101826.84
2023-01-01T03:00:33.905Z,101820.81
2023-01-01T03:03:42.380Z,101829.31
2023-01-01T03:06:45.693Z,101824.31
2023-01-01T03:09:58.384Z,101813.09
2023-01-01T03:12:45.835Z,101825.84
2023-01-01T03:15:30.501Z,101823.94
2023-01-01T03:18:05.800Z,101830.25
2023-01-01T03:20:41.844Z,101817.06
2023-01-01T03:23:20.514Z,101820.22
2023-01-01T03:25:57.266Z,101817.63
2023-01-01T03:28:37.800Z,101811.53
2023-01-01T03:31:09.066Z,101813.22
2023-01-01T03:33:47.473Z,101809.38
2023-01-01T03:36:26.325Z,101812.66
2023-01-01T03:39:39.858Z,101804.75
2023-01-01T03:42:21.654Z,101803.47
2023-01-01T03:45:00.897Z,101804.34
2023-01-01T03:47:32.790Z,101798.06
2023-01-01T03:50:04.723Z,101791.38
2023-01-01T03:52:46.518Z,101788.09
2023-01-01T03:55:34.709Z,101783.09
2023-01-01T03:58:17.886Z,101777.09
2023-01-01T04:01:03.670Z,101769.13
2023-01-01T04:03:36.445Z,101766.91
2023-01-01T04:06:07.964Z,101765.09
2023-01-01T04:08:38.113Z,101760.06
2023-01-01T04:11:32.190Z,101759.59
2023-01-01T04:14:04.830Z,101753.84
2023-01-01T04:16:35.826Z,101749.72
2023-01-01T04:19:09.252Z,101742.63
2023-01-01T04:21:39.576Z,101740.69
2023-01-01T04:24:09.957Z,101736.00
2023-01-01T04:26:40.150Z,101730.50
2023-01-01T04:29:10.595Z,101732.69
2023-01-01T04:31:40.703Z,101726.69
2023-01-01T04:34:11.166Z,101710.19
2023-01-01T04:36:41.441Z,101714.06
2023-01-01T04:39:11.857Z,101709.66
2023-01-01T04:41:42.098Z,101705.81
2023-01-01T04:44:12.289Z,101703.63
2023-01-01T04:46:42.624Z,101693.75
2023-01-01T04:49:12.750Z,101685.78
2023-01-01T04:51:43.259Z,101691.78
2023-01-01T04:54:13.557Z,101664.28
2023-01-01T04:56:43.824Z,101667.06
2023-01-01T04:59:14.413Z,101659.66
2023-01-01T05:01:44.887Z,101646.19
2023-01-01T05:04:19.217Z,101645.09
2023-01-01T05:06:52.139Z,101647.00
2023-01-01T05:09:22.398Z,101642.91
2023-01-01T05:11:52.885Z,101638.47
2023-01-01T05:14:23.104Z,101638.22
2023-01-01T05:16:53.457Z,101627.22
2023-01-01T05:19:23.758Z,101631.63
2023-01-01T05:21:54.149Z,101626.13
2023-01-01T05:24:24.261Z,101612.38
2023-01-01T05:26:55.810Z,101612.13
2023-01-01T05:29:26.549Z,101605.25
2023-01-01T05:31:56.996Z,101603.59
2023-01-01T05:36:58.618Z,101584.63
2023-01-01T05:39:29.068Z,101582.69
2023-01-01T05:42:02.152Z,101577.19
2023-01-01T05:44:32.330Z,101575.25
2023-01-01T05:47:02.668Z,101568.38
2023-01-01T05:49:32.939Z,101564.78
2023-01-01T05:52:03.540Z,101553.50
2023-01-01T05:54:33.624Z,101553.78
2023-01-01T05:57:03.748Z,101529.31
2023-01-01T05:59:33.820Z,101529.31
2023-01-01T06:02:03.904Z,101522.47
2023-01-01T06:04:34.063Z,101516.09
2023-01-01T06:07:04.139Z,101517.22
2023-01-01T06:09:34.150Z,101507.53
2023-01-01T06:12:04.266Z,101509.75
2023-01-01T06:14:34.381Z,101505.09
2023-01-01T06:17:04.835Z,101501.50
2023-01-01T06:19:34.963Z,101490.50
2023-01-01T06:22:05.078Z,101487.75
2023-01-01T06:24:39.164Z,101478.09
2023-01-01T06:27:09.673Z,101473.69
2023-01-01T06:29:39.811Z,101459.94
2023-01-01T06:32:09.837Z,101463.81
2023-01-01T06:34:39.865Z,101458.84
2023-01-01T06:37:09.886Z,101445.94
2023-01-01T06:39:40.107Z,101440.97
2023-01-01T06:42:10.258Z,101432.44
2023-01-01T06:44:40.287Z,101431.34
2023-01-01T06:47:10.888Z,101423.31
2023-01-01T06:49:41.103Z,101422.44
2023-01-01T06:52:13.360Z,101413.63
2023-01-01T06:54:43.588Z,101403.72
2023-01-01T06:57:13.752Z,101402.94
2023-01-01T06:59:43.968Z,101400.94
2023-01-01T07:02:14.941Z,101392.16
2023-01-01T07:04:45.766Z,101387.22
2023-01-01T07:07:15.915Z,101389.41
2023-01-01T07:09:45.883Z,101385.59
2023-01-01T07:12:17.017Z,101384.78
2023-01-01T07:14:47.205Z,101371.03
2023-01-01T07:17:17.544Z,101370.16
2023-01-01T07:19:47.759Z,101368.56
2023-01-01T07:22:18.272Z,101363.59
2023-01-01T07:24:50.582Z,101360.28
2023-01-01T07:27:21.029Z,101365.78
2023-01-01T07:29:51.206Z,101361.38
2023-01-01T07:32:21.416Z,101363.03
2023-01-01T07:34:52.116Z,101350.38
2023-01-01T07:37:22.773Z,101342.69
2023-01-01T07:39:52.950Z,101340.47
2023-01-01T07:42:23.176Z,101341.59
2023-01-01T07:44:53.294Z,101332.75
2023-01-01T07:47:29.605Z,101324.53
2023-01-01T07:50:00.422Z,101321.47
2023-01-01T07:52:32.599Z,101316.22
2023-01-01T07:55:02.842Z,101323.66
2023-01-01T07:57:32.913Z,101314.59
2023-01-01T08:00:02.934Z,101310.47
2023-01-01T08:02:42.879Z,101305.81
2023-01-01T08:05:13.682Z,101308.56
2023-01-01T08:07:49.374Z,101308.56
2023-01-01T08:10:22.531Z,101299.19
2023-01-01T08:12:53.460Z,101304.56
2023-01-01T08:15:48.452Z,101297.31
2023-01-01T08:18:18.651Z,101291.34
2023-01-01T08:20:48.837Z,101288.34
2023-01-01T08:23:18.882Z,101293.59
2023-01-01T08:25:48.853Z,101289.75
2023-01-01T08:28:18.959Z,101284.25
2023-01-01T08:30:49.090Z,101284.25
2023-01-01T08:33:19.235Z,101283.13
2023-01-01T08:35:53.879Z,101272.44
2023-01-01T08:38:24.724Z,101269.69
2023-01-01T08:40:55.632Z,101267.22
2023-01-01T08:43:27.773Z,101264.19
2023-01-01T08:45:57.879Z,101268.84
2023-01-01T08:48:30.898Z,101265.81
2023-01-01T08:51:03.571Z,101262.53
2023-01-01T08:53:35.281Z,101256.75
2023-01-01T08:56:08.609Z,101257.84
2023-01-01T08:58:40.723Z,101256.22
2023-01-01T09:01:12.896Z,101257.84
2023-01-01T09:03:43.161Z,101255.31
2023-01-01T09:06:13.468Z,101260.59
2023-01-01T09:08:43.689Z,101263.34
2023-01-01T09:11:28.825Z,101247.69
2023-01-01T09:13:59.207Z,101254.00
2023-01-01T09:16:29.485Z,101254.00
2023-01-01T09:19:00.088Z,101252.88
2023-01-01T09:21:30.588Z,101263.56
2023-01-01T09:24:00.744Z,101261.13
2023-01-01T09:26:31.043Z,101264.41
2023-01-01T09:29:02.343Z,101259.72
2023-01-01T09:31:32.736Z,101256.47
2023-01-01T09:34:03.035Z,101267.47
2023-01-01T09:36:35.077Z,101262.25
2023-01-01T09:39:05.438Z,101265.00
2023-01-01T09:41:48.734Z,101262.28
2023-01-01T09:44:37.203Z,101266.19
2023-01-01T09:47:16.269Z,101259.25
2023-01-01T09:49:48.495Z,101263.66
2023-01-01T09:52:21.331Z,101260.69
2023-01-01T09:55:06.052Z,101263.66
2023-01-01T09:57:36.493Z,101260.13
2023-01-01T10:00:17.195Z,101264.50
2023-01-01T10:02:53.818Z,101265.63
2023-01-01T10:06:08.200Z,101263.97
2023-01-01T10:09:02.912Z,101263.66
2023-01-01T10:11:57.402Z,101270.00
2023-01-01T10:14:49.125Z,101271.38
2023-01-01T10:17:38.944Z,101272.22
2023-01-01T10:20:27.215Z,101273.91
2023-01-01T10:23:03.469Z,101284.59
2023-01-01T10:25:36.879Z,101283.22
2023-01-01T10:28:39.278Z,101282.38
2023-01-01T10:31:32.620Z,101286.03
2023-01-01T10:34:25.028Z,101289.59
2023-01-01T10:36:58.313Z,101294.28
2023-01-01T10:39:29.385Z,101302.06
2023-01-01T10:42:02.245Z,101301.53
2023-01-01T10:44:35.857Z,101310.03
2023-01-01T10:47:31.081Z,101318.28
2023-01-01T10:50:09.956Z,101315.84
2023-01-01T10:52:42.904Z,101319.69
2023-01-01T10:55:28.333Z,101321.59
2023-01-01T10:57:58.780Z,101327.41
2023-01-01T11:00:31.414Z,101325.78
2023-01-01T11:03:24.145Z,101337.34
2023-01-01T11:06:38.839Z,101342.84
2023-01-01T11:09:30.345Z,101347.00
2023-01-01T11:12:11.765Z,101346.19
2023-01-01T11:14:57.617Z,101350.59
2023-01-01T11:17:31.884Z,101344.00
2023-01-01T11:20:04.502Z,101355.25
2023-01-01T11:22:44.397Z,101364.06
2023-01-01T11:25:20.631Z,101358.56
2023-01-01T11:27:53.691Z,101362.13
2023-01-01T11:30:31.048Z,101370.38
2023-01-01T11:33:05.873Z,101381.66
2023-01-01T11:35:50.710Z,101376.72
2023-01-01T11:38:29.487Z,101380.84
2023-01-01T11:41:08.653Z,101390.19
2023-01-01T11:43:49.646Z,101396.50
2023-01-01T11:46:27.146Z,101397.34
2023-01-01T11:48:57.503Z,101397.91
2023-01-01T11:51:34.083Z,101404.22
2023-01-01T11:54:35.328Z,101404.81
2023-01-01T11:57:17.403Z,101405.34
2023-01-01T11:59:59.071Z,101415.50
2023-01-01T12:02:40.893Z,101421.84
2023-01-01T12:05:48.276Z,101427.03
2023-01-01T12:08:25.907Z,101425.41
2023-01-01T12:11:02.873Z,101428.94
2023-01-01T12:13:44.773Z,101439.13
2023-01-01T12:16:26.766Z,101440.78
2023-01-01T12:19:12.227Z,101439.13
2023-01-01T12:21:52.525Z,101449.56
2023-01-01T12:24:23.617Z,101452.31
2023-01-01T12:27:08.553Z,101457.81
2023-01-01T12:30:06.859Z,101461.69
2023-01-01T12:33:08.539Z,101462.53
2023-01-01T12:35:51.019Z,101471.03
2023-01-01T12:38:26.751Z,101469.91
2023-01-01T12:41:23.256Z,101480.91
2023-01-01T12:44:30.030Z,101483.38
2023-01-01T12:47:06.057Z,101478.16
2023-01-01T12:49:36.949Z,101499.84
2023-01-01T12:52:41.901Z,101498.75
2023-01-01T12:55:39.078Z,101502.59
2023-01-01T12:58:35.038Z,101507.84
2023-01-01T13:01:14.009Z,101515.25
2023-01-01T13:03:51.299Z,101513.59
2023-01-01T13:06:34.201Z,101522.16
2023-01-01T13:09:14.333Z,101525.69
2023-01-01T13:11:46.537Z,101530.41
2023-01-01T13:14:16.986Z,101525.44
2023-01-01T13:16:58.641Z,101532.59
2023-01-01T13:19:36.294Z,101539.44
2023-01-01T13:22:31.025Z,101532.59
2023-01-01T13:25:07.102Z,101547.75
2023-01-01T13:28:16.151Z,101547.75
2023-01-01T13:30:46.277Z,101546.63
2023-01-01T13:33:34.599Z,101554.59
2023-01-01T13:36:10.772Z,101557.34
2023-01-01T13:38:51.968Z,101564.19
2023-01-01T13:41:39.016Z,101568.34
2023-01-01T13:44:10.773Z,101563.94
2023-01-01T13:46:40.964Z,101573.28
2023-01-01T13:49:29.890Z,101569.44
2023-01-01T13:52:21.370Z,101583.75
2023-01-01T13:55:27.170Z,101585.13
2023-01-01T13:58:32.397Z,101587.03
2023-01-01T14:01:30.038Z,101583.19
2023-01-01T14:04:03.077Z,101589.78
2023-01-01T14:06:39.417Z,101587.59
2023-01-01T14:09:15.701Z,101594.72
2023-01-01T14:11:45.878Z,101601.06
2023-01-01T14:14:31.602Z,101594.19
2023-01-01T14:17:04.567Z,101602.72
2023-01-01T14:19:35.357Z,101599.97
2023-01-01T14:22:10.890Z,101606.28
2023-01-01T14:24:45.703Z,101615.63
2023-01-01T14:27:23.208Z,101613.97
2023-01-01T14:29:56.668Z,101618.09
